UKOH/KHE METAR and TAF weather

Enter ICAO airport designator
Station Type Date Time Source
UKOH METAR 2021/09/19 19:00 UTC NOAA

UKOH 191900Z 18002MPS CAVOK 16/14 Q1008 R21/CLRD65 NOSIG


Station Type Date Time Source
UKOH Decoded METAR 2021/09/19 19:00 UTC NOAA

Station name not available
Sep 19, 2021 - 03:00 PM EDT / 2021.09.19 1900 UTC
Wind: from the S (180 degrees) at 4 MPH (4 KT):0
Visibility: greater than 7 mile(s):0
Temperature: 60 F (16 C)
Dew Point: 57 F (14 C)
Relative Humidity: 87%
Pressure (altimeter): 29.77 in. Hg (1008 hPa)
ob: UKOH 191900Z 18002MPS CAVOK 16/14 Q1008 R21/CLRD65 NOSIG
cycle: 19

Station Type Date Time Source
UKOH TAF UTC NOAA

Error!

Example: see airport list